createdAt,value
2022-09-28T00:02:01.632Z,14.66
2022-09-28T00:04:30.712Z,14.80
2022-09-28T00:06:59.931Z,14.70
2022-09-28T00:09:30.512Z,14.56
2022-09-28T00:11:59.794Z,14.54
2022-09-28T00:14:29.065Z,14.48
2022-09-28T00:16:58.341Z,14.55
2022-09-28T00:19:27.446Z,14.54
2022-09-28T00:21:56.734Z,14.56
2022-09-28T00:24:27.786Z,14.57
2022-09-28T00:27:01.436Z,14.68
2022-09-28T00:29:32.360Z,14.76
2022-09-28T00:32:03.518Z,14.73
2022-09-28T00:34:36.343Z,14.56
2022-09-28T00:37:08.859Z,14.59
2022-09-28T00:39:38.772Z,14.50
2022-09-28T00:42:15.642Z,14.52
2022-09-28T00:44:48.707Z,14.58
2022-09-28T00:47:31.274Z,14.60
2022-09-28T00:50:04.276Z,14.59
2022-09-28T00:52:37.221Z,14.66
2022-09-28T00:55:09.922Z,14.66
2022-09-28T00:57:44.429Z,14.63
2022-09-28T01:00:14.795Z,14.52
2022-09-28T01:02:44.798Z,14.52
2022-09-28T01:05:15.322Z,14.47
2022-09-28T01:07:45.523Z,14.48
2022-09-28T01:10:15.501Z,14.44
2022-09-28T01:12:46.081Z,14.46
2022-09-28T01:15:16.669Z,14.16
2022-09-28T01:18:09.262Z,14.22
2022-09-28T01:20:57.375Z,14.13
2022-09-28T01:24:04.318Z,14.08
2022-09-28T01:26:54.767Z,14.12
2022-09-28T01:29:37.239Z,14.06
2022-09-28T01:32:22.347Z,14.16
2022-09-28T01:34:59.140Z,14.12
2022-09-28T01:37:37.396Z,13.99
2022-09-28T01:40:08.854Z,14.13
2022-09-28T01:42:42.513Z,14.06
2022-09-28T01:45:29.195Z,14.05
2022-09-28T01:48:03.258Z,13.95
2022-09-28T01:50:37.265Z,14.00
2022-09-28T01:53:13.138Z,14.05
2022-09-28T01:55:46.231Z,13.97
2022-09-28T01:58:26.138Z,14.01
2022-09-28T02:01:00.939Z,14.08
2022-09-28T02:03:36.587Z,14.21
2022-09-28T02:06:10.745Z,14.33
2022-09-28T02:08:45.205Z,14.38
2022-09-28T02:11:16.302Z,14.34
2022-09-28T02:13:50.886Z,14.37
2022-09-28T02:16:24.202Z,14.36
2022-09-28T02:18:53.757Z,14.37
2022-09-28T02:21:28.718Z,14.37
2022-09-28T02:24:02.692Z,14.36
2022-09-28T02:26:36.156Z,14.24
2022-09-28T02:29:06.934Z,14.68
2022-09-28T02:36:34.329Z,14.37
2022-09-28T02:39:03.670Z,14.46
2022-09-28T02:41:43.974Z,14.55
2022-09-28T02:44:30.671Z,14.61
2022-09-28T02:47:05.701Z,14.61
2022-09-28T02:49:49.308Z,14.59
2022-09-28T02:52:37.978Z,14.58
2022-09-28T02:55:20.343Z,14.56
2022-09-28T02:58:04.822Z,14.46
2022-09-28T03:00:42.313Z,14.48
2022-09-28T03:03:19.530Z,14.53
2022-09-28T03:05:58.515Z,14.52
2022-09-28T03:08:34.604Z,14.49
2022-09-28T03:11:08.728Z,14.54
2022-09-28T03:13:39.361Z,14.54
2022-09-28T03:16:15.988Z,14.64
2022-09-28T03:18:47.768Z,14.58
2022-09-28T03:21:18.020Z,14.52
2022-09-28T03:23:48.005Z,14.54
2022-09-28T03:26:19.999Z,14.49
2022-09-28T03:28:49.348Z,14.44
2022-09-28T03:31:26.001Z,14.41
2022-09-28T03:33:55.717Z,14.38
2022-09-28T03:36:25.003Z,14.13
2022-09-28T03:38:55.147Z,14.23
2022-09-28T03:41:27.769Z,14.25
2022-09-28T03:43:57.070Z,14.33
2022-09-28T03:46:29.841Z,14.29
2022-09-28T03:49:04.579Z,14.28
2022-09-28T03:51:33.895Z,14.22
2022-09-28T03:54:03.226Z,14.28
2022-09-28T03:56:33.198Z,14.26
2022-09-28T03:59:03.829Z,14.34
2022-09-28T04:01:34.930Z,14.26
2022-09-28T04:04:04.282Z,14.22
2022-09-28T04:06:33.443Z,14.29
2022-09-28T04:09:02.860Z,14.26
2022-09-28T04:11:47.546Z,14.36
2022-09-28T04:14:17.506Z,14.26
2022-09-28T04:16:48.709Z,14.21
2022-09-28T04:19:18.884Z,14.07
2022-09-28T04:22:07.398Z,14.07
2022-09-28T04:24:36.853Z,14.16
2022-09-28T04:27:23.372Z,14.16
2022-09-28T04:29:52.977Z,14.20
2022-09-28T04:32:23.514Z,14.25
2022-09-28T04:34:53.839Z,14.07
2022-09-28T04:37:23.435Z,14.09
2022-09-28T04:39:52.963Z,14.02
2022-09-28T04:42:22.381Z,13.96
2022-09-28T04:44:52.773Z,13.98
2022-09-28T04:47:23.540Z,13.96
2022-09-28T04:49:52.956Z,13.91
2022-09-28T04:52:28.292Z,13.94
2022-09-28T04:54:57.502Z,13.90
2022-09-28T04:57:27.778Z,13.88
2022-09-28T04:59:57.071Z,13.89
2022-09-28T05:02:29.532Z,13.94
2022-09-28T05:05:17.901Z,13.96
2022-09-28T05:08:00.218Z,13.88
2022-09-28T05:10:29.813Z,13.91
2022-09-28T05:12:59.164Z,13.92
2022-09-28T05:15:28.809Z,13.92
2022-09-28T05:17:59.595Z,13.96
2022-09-28T05:20:42.804Z,14.01
2022-09-28T05:23:13.019Z,14.05
2022-09-28T05:25:45.519Z,14.14
2022-09-28T05:28:30.072Z,14.18
2022-09-28T05:31:18.084Z,14.20
2022-09-28T05:34:11.338Z,14.14
2022-09-28T05:36:42.801Z,14.12
2022-09-28T05:39:11.931Z,14.15
2022-09-28T05:41:42.092Z,14.18
2022-09-28T05:44:11.560Z,14.24
2022-09-28T05:46:40.578Z,14.19
2022-09-28T05:49:14.213Z,14.13
2022-09-28T05:51:43.551Z,14.27
2022-09-28T05:54:12.645Z,14.31
2022-09-28T05:56:45.701Z,14.32
2022-09-28T05:59:15.714Z,14.19
2022-09-28T06:01:44.847Z,14.08
2022-09-28T06:04:16.597Z,14.21
2022-09-28T06:06:47.131Z,14.05
2022-09-28T06:09:16.447Z,14.01
2022-09-28T06:12:04.833Z,14.13
2022-09-28T06:14:47.235Z,14.16
2022-09-28T06:17:17.038Z,14.23
2022-09-28T06:19:53.398Z,14.34
2022-09-28T06:22:35.083Z,14.43
2022-09-28T06:25:10.946Z,14.48
2022-09-28T06:27:42.754Z,14.51
2022-09-28T06:30:13.249Z,14.27
2022-09-28T06:32:43.203Z,14.17
2022-09-28T06:35:15.542Z,14.23
2022-09-28T06:37:46.810Z,14.14
2022-09-28T06:40:16.379Z,14.11
2022-09-28T06:42:46.047Z,14.23
2022-09-28T06:45:53.803Z,14.24
2022-09-28T06:48:41.860Z,14.33
2022-09-28T06:51:16.225Z,14.35
2022-09-28T06:53:56.940Z,14.21
2022-09-28T06:56:52.476Z,14.20
2022-09-28T06:59:22.354Z,14.27
2022-09-28T07:01:51.816Z,14.42
2022-09-28T07:04:27.217Z,14.28
2022-09-28T07:07:16.155Z,14.38
2022-09-28T07:10:10.498Z,14.31
2022-09-28T07:13:15.267Z,14.24
2022-09-28T07:15:56.942Z,14.50
2022-09-28T07:18:26.912Z,14.47
2022-09-28T07:20:58.181Z,14.60
2022-09-28T07:23:30.634Z,14.52
2022-09-28T07:26:35.452Z,14.84
2022-09-28T07:29:11.841Z,14.82
2022-09-28T07:31:54.193Z,14.73
2022-09-28T07:34:43.662Z,14.81
2022-09-28T07:37:37.431Z,14.79
2022-09-28T07:40:46.241Z,14.82
2022-09-28T07:43:20.656Z,14.92
2022-09-28T07:45:54.080Z,15.09
2022-09-28T07:48:24.288Z,14.89
2022-09-28T07:51:12.663Z,14.82
2022-09-28T07:53:44.715Z,14.90
2022-09-28T07:56:34.919Z,14.77
2022-09-28T07:59:26.882Z,14.99
2022-09-28T08:02:15.186Z,14.96
2022-09-28T08:04:45.025Z,15.22
2022-09-28T08:07:14.296Z,15.18
2022-09-28T08:09:43.694Z,15.19
2022-09-28T08:12:34.260Z,15.20
2022-09-28T08:15:37.293Z,15.09
2022-09-28T08:18:24.524Z,15.29
2022-09-28T08:21:12.040Z,15.13
2022-09-28T08:23:41.513Z,15.14
2022-09-28T08:26:14.712Z,14.84
2022-09-28T08:28:47.917Z,14.86
2022-09-28T08:31:36.248Z,14.71
2022-09-28T08:34:38.364Z,15.04
2022-09-28T08:37:16.794Z,14.91
2022-09-28T08:40:05.282Z,15.17
2022-09-28T08:42:52.259Z,15.10
2022-09-28T08:45:49.734Z,15.09
2022-09-28T08:49:13.547Z,15.23
2022-09-28T08:52:09.052Z,15.32
2022-09-28T08:55:03.844Z,15.84
2022-09-28T08:57:46.182Z,15.89
2022-09-28T09:00:22.277Z,15.95
2022-09-28T09:02:53.321Z,15.74
2022-09-28T09:05:42.010Z,15.18
2022-09-28T09:08:25.967Z,14.97
2022-09-28T09:11:04.253Z,15.00
2022-09-28T09:14:09.172Z,15.03
2022-09-28T09:16:49.423Z,15.37
2022-09-28T09:20:00.359Z,15.32
2022-09-28T09:23:00.783Z,15.24
2022-09-28T09:25:38.513Z,15.08
2022-09-28T09:28:43.861Z,14.76
2022-09-28T09:31:27.662Z,14.75
2022-09-28T09:34:23.191Z,14.92
2022-09-28T09:37:06.672Z,15.09
2022-09-28T09:40:26.381Z,15.12
2022-09-28T09:43:22.624Z,15.30
2022-09-28T09:46:25.136Z,15.22
2022-09-28T09:49:08.022Z,15.19
2022-09-28T09:51:41.327Z,15.45
2022-09-28T09:54:19.918Z,15.46
2022-09-28T09:56:54.854Z,15.04
2022-09-28T09:59:46.283Z,14.99
2022-09-28T10:02:28.066Z,15.04
2022-09-28T10:05:20.369Z,15.02
2022-09-28T10:07:55.993Z,15.15
2022-09-28T10:10:32.481Z,15.20
2022-09-28T10:13:13.612Z,15.42
2022-09-28T10:15:45.908Z,15.71
2022-09-28T10:18:22.298Z,15.84
2022-09-28T10:21:15.149Z,15.58
2022-09-28T10:23:58.935Z,15.45
2022-09-28T10:26:36.797Z,15.23
2022-09-28T10:29:14.810Z,15.11
2022-09-28T10:31:47.358Z,15.10
2022-09-28T10:34:32.454Z,15.27
2022-09-28T10:37:13.041Z,15.37
2022-09-28T10:40:30.294Z,14.98
2022-09-28T10:43:09.266Z,14.90
2022-09-28T10:45:39.967Z,14.85
2022-09-28T10:48:17.862Z,15.10
2022-09-28T10:51:01.255Z,15.69
2022-09-28T10:53:31.427Z,15.26
2022-09-28T10:56:22.701Z,15.14
2022-09-28T10:59:03.156Z,14.71
2022-09-28T11:01:45.543Z,14.82
2022-09-28T11:04:23.499Z,15.08
2022-09-28T11:09:32.796Z,15.64
2022-09-28T11:12:15.553Z,15.80
2022-09-28T11:14:52.868Z,16.56
2022-09-28T11:17:29.707Z,16.99
2022-09-28T11:20:00.930Z,19.42
2022-09-28T11:22:41.828Z,19.30
2022-09-28T11:25:24.747Z,18.82
2022-09-28T11:28:04.733Z,19.81
2022-09-28T11:30:41.826Z,22.91
2022-09-28T11:33:43.368Z,23.65
2022-09-28T11:37:07.608Z,21.93
2022-09-28T11:39:50.014Z,23.84
2022-09-28T11:42:32.665Z,21.14
2022-09-28T11:45:12.932Z,21.33
2022-09-28T11:47:54.114Z,23.14
2022-09-28T11:50:29.513Z,23.25
2022-09-28T11:53:18.027Z,23.53
2022-09-28T11:55:53.194Z,22.27
2022-09-28T11:58:30.929Z,24.04
2022-09-28T12:01:06.949Z,24.70
2022-09-28T12:04:01.344Z,25.29
2022-09-28T12:06:38.828Z,24.81
2022-09-28T12:09:17.081Z,23.50
2022-09-28T12:12:01.272Z,24.25
2022-09-28T12:14:46.843Z,25.16
2022-09-28T12:17:23.411Z,22.75
2022-09-28T12:19:59.547Z,21.10
2022-09-28T12:22:36.073Z,20.47
2022-09-28T12:25:12.157Z,20.23
2022-09-28T12:27:46.278Z,20.03
2022-09-28T12:30:20.189Z,20.61
2022-09-28T12:32:54.504Z,20.03
2022-09-28T12:35:37.271Z,19.70
2022-09-28T12:38:32.073Z,18.86
2022-09-28T12:41:17.080Z,18.01
2022-09-28T12:44:00.611Z,17.48
2022-09-28T12:46:49.015Z,17.14
2022-09-28T12:55:21.036Z,17.02
2022-09-28T12:58:00.827Z,17.61
2022-09-28T13:00:40.082Z,18.56
2022-09-28T13:03:36.987Z,18.20
2022-09-28T13:06:37.592Z,17.30
2022-09-28T13:09:23.794Z,17.23
2022-09-28T13:12:13.224Z,17.54
2022-09-28T13:15:06.831Z,19.82
2022-09-28T13:17:53.427Z,25.01
2022-09-28T13:20:44.613Z,21.79
2022-09-28T13:23:20.632Z,20.50
2022-09-28T13:25:57.281Z,19.07
2022-09-28T13:28:28.554Z,18.11
2022-09-28T13:33:40.641Z,18.29
2022-09-28T13:36:38.980Z,18.77
2022-09-28T13:39:48.761Z,19.55
2022-09-28T13:43:00.386Z,19.28
2022-09-28T13:45:41.920Z,18.25
2022-09-28T13:48:20.876Z,18.18
2022-09-28T13:51:17.400Z,17.38
2022-09-28T13:54:04.351Z,16.78
2022-09-28T13:56:43.680Z,16.97
2022-09-28T13:59:23.305Z,17.01
2022-09-28T14:01:58.148Z,17.07
2022-09-28T14:04:55.642Z,16.87
2022-09-28T14:07:26.239Z,16.98
2022-09-28T14:10:21.130Z,16.98
2022-09-28T14:12:51.561Z,16.96
2022-09-28T14:15:44.095Z,16.55
2022-09-28T14:18:25.480Z,16.52
2022-09-28T14:21:37.345Z,16.28
2022-09-28T14:24:17.406Z,16.17
2022-09-28T14:27:29.095Z,16.16
2022-09-28T14:30:17.828Z,15.81
2022-09-28T14:32:56.280Z,15.79
2022-09-28T14:35:35.029Z,15.63
2022-09-28T14:38:32.184Z,15.68
2022-09-28T14:41:10.664Z,15.74
2022-09-28T14:44:03.971Z,15.77
2022-09-28T14:46:44.396Z,15.70
2022-09-28T14:50:00.708Z,15.50
2022-09-28T14:52:47.754Z,15.48
2022-09-28T14:55:20.401Z,15.63
2022-09-28T14:57:56.886Z,15.46
2022-09-28T15:00:29.494Z,15.49
2022-09-28T15:03:02.326Z,15.60
2022-09-28T15:05:43.909Z,15.36
2022-09-28T15:08:13.933Z,15.56
2022-09-28T15:10:48.134Z,15.38
2022-09-28T15:13:23.577Z,15.48
2022-09-28T15:15:54.452Z,15.53
2022-09-28T15:18:49.081Z,15.46
2022-09-28T15:21:20.680Z,15.55
2022-09-28T15:23:49.926Z,15.38
2022-09-28T15:26:27.619Z,15.50
2022-09-28T15:28:57.044Z,15.21
2022-09-28T15:31:28.497Z,15.27
2022-09-28T15:34:14.937Z,15.40
2022-09-28T15:36:47.242Z,15.23
2022-09-28T15:39:19.762Z,15.23
2022-09-28T15:41:51.618Z,15.28
2022-09-28T15:44:33.081Z,15.44
2022-09-28T15:47:11.020Z,15.41
2022-09-28T15:49:45.052Z,15.29
2022-09-28T15:52:29.150Z,15.28
2022-09-28T15:55:01.092Z,15.25
2022-09-28T15:57:41.279Z,15.24
2022-09-28T16:00:27.799Z,15.20
2022-09-28T16:03:02.178Z,15.27
2022-09-28T16:05:43.017Z,15.20
2022-09-28T16:08:21.501Z,15.18
2022-09-28T16:11:05.251Z,15.29
2022-09-28T16:13:35.181Z,15.16
2022-09-28T16:16:04.409Z,15.18
2022-09-28T16:18:39.406Z,15.10
2022-09-28T16:21:31.620Z,15.10
2022-09-28T16:24:02.476Z,15.06
2022-09-28T16:26:35.551Z,14.91
2022-09-28T16:29:10.897Z,14.82
2022-09-28T16:31:43.273Z,14.82
2022-09-28T16:34:21.175Z,14.70
2022-09-28T16:36:51.760Z,14.71
2022-09-28T16:39:22.187Z,14.55
2022-09-28T16:41:55.430Z,14.48
2022-09-28T16:44:28.516Z,14.38
2022-09-28T16:47:00.985Z,14.23
2022-09-28T16:49:32.290Z,14.16
2022-09-28T16:52:02.500Z,14.17
2022-09-28T16:54:51.622Z,14.08
2022-09-28T16:57:20.924Z,13.77
2022-09-28T16:59:49.927Z,13.60
2022-09-28T17:02:46.178Z,13.51
2022-09-28T17:05:14.938Z,13.37
2022-09-28T17:07:45.923Z,13.26
2022-09-28T17:10:28.266Z,13.23
2022-09-28T17:12:57.441Z,13.04
2022-09-28T17:15:26.916Z,12.89
2022-09-28T17:17:56.507Z,12.88
2022-09-28T17:20:28.677Z,13.01
2022-09-28T17:22:58.180Z,12.93
2022-09-28T17:25:29.090Z,12.89
2022-09-28T17:27:59.616Z,12.76
2022-09-28T17:30:29.023Z,12.71
2022-09-28T17:33:01.626Z,12.51
2022-09-28T17:35:30.994Z,12.46
2022-09-28T17:38:00.587Z,12.30
2022-09-28T17:40:31.847Z,12.09
2022-09-28T17:43:01.370Z,12.07
2022-09-28T17:45:32.103Z,11.93
2022-09-28T17:48:01.890Z,11.88
2022-09-28T17:50:34.461Z,11.85
2022-09-28T17:53:06.267Z,11.75
2022-09-28T17:55:40.880Z,11.71
2022-09-28T17:58:17.729Z,11.58
2022-09-28T18:00:49.142Z,11.68
2022-09-28T18:03:20.433Z,11.62
2022-09-28T18:05:59.363Z,11.41
2022-09-28T18:08:28.398Z,11.26
2022-09-28T18:10:59.227Z,11.03
2022-09-28T18:13:28.576Z,11.13
2022-09-28T18:15:58.480Z,10.95
2022-09-28T18:18:27.935Z,10.95
2022-09-28T18:20:57.155Z,10.95
2022-09-28T18:23:26.238Z,11.02
2022-09-28T18:25:55.808Z,10.85
2022-09-28T18:28:29.152Z,10.84
2022-09-28T18:30:58.566Z,10.90
2022-09-28T18:33:27.939Z,10.80
2022-09-28T18:35:57.614Z,10.66
2022-09-28T18:38:26.890Z,10.68
2022-09-28T18:40:56.605Z,10.69
2022-09-28T18:43:26.164Z,10.79
2022-09-28T18:45:57.009Z,10.68
2022-09-28T18:48:28.052Z,10.67
2022-09-28T18:50:57.695Z,10.50
2022-09-28T18:53:26.971Z,10.42
2022-09-28T18:55:57.756Z,10.33
2022-09-28T18:58:27.880Z,10.33
2022-09-28T19:01:18.730Z,10.38
2022-09-28T19:03:47.829Z,10.32
2022-09-28T19:06:18.166Z,10.25
2022-09-28T19:08:52.259Z,10.22
2022-09-28T19:11:25.328Z,10.35
2022-09-28T19:13:55.951Z,10.15
2022-09-28T19:16:29.199Z,10.26
2022-09-28T19:18:58.974Z,10.16
2022-09-28T19:21:28.206Z,10.15
2022-09-28T19:23:57.685Z,9.98
2022-09-28T19:26:28.228Z,10.06
2022-09-28T19:29:00.375Z,10.18
2022-09-28T19:31:31.366Z,10.21
2022-09-28T19:34:00.734Z,10.20
2022-09-28T19:36:30.490Z,10.21
2022-09-28T19:39:02.906Z,10.26
2022-09-28T19:41:44.532Z,10.26
2022-09-28T19:44:24.745Z,10.23
2022-09-28T19:46:58.162Z,10.34
2022-09-28T19:49:33.104Z,10.40
2022-09-28T19:52:18.462Z,10.46
2022-09-28T19:54:52.126Z,10.56
2022-09-28T19:57:21.409Z,10.54
2022-09-28T19:59:52.698Z,10.56
2022-09-28T20:02:24.129Z,10.52
2022-09-28T20:04:53.246Z,10.60
2022-09-28T20:07:22.926Z,10.65
2022-09-28T20:09:52.090Z,10.66
2022-09-28T20:12:21.209Z,10.63
2022-09-28T20:14:50.153Z,10.69
2022-09-28T20:17:22.051Z,10.68
2022-09-28T20:19:52.740Z,10.74
2022-09-28T20:22:22.316Z,10.63
2022-09-28T20:24:51.319Z,10.69
2022-09-28T20:27:23.187Z,10.69
2022-09-28T20:29:55.436Z,10.69
2022-09-28T20:32:24.840Z,10.74
2022-09-28T20:34:55.298Z,10.65
2022-09-28T20:37:25.610Z,10.65
2022-09-28T20:39:55.470Z,10.66
2022-09-28T20:42:24.590Z,10.69
2022-09-28T20:44:54.278Z,10.69
2022-09-28T20:47:23.319Z,10.71
2022-09-28T20:49:52.284Z,10.76
2022-09-28T20:52:23.198Z,10.82
2022-09-28T20:54:52.352Z,10.79
2022-09-28T20:57:21.416Z,10.80
2022-09-28T20:59:54.591Z,10.78
2022-09-28T21:02:24.136Z,10.75
2022-09-28T21:04:54.166Z,10.45
2022-09-28T21:07:24.698Z,10.60
2022-09-28T21:09:54.427Z,10.96
2022-09-28T21:12:26.040Z,10.97
2022-09-28T21:14:55.338Z,11.04
2022-09-28T21:17:24.314Z,11.03
2022-09-28T21:19:53.198Z,11.07
2022-09-28T21:22:23.911Z,11.00
2022-09-28T21:24:53.143Z,11.11
2022-09-28T21:27:22.197Z,11.19
2022-09-28T21:29:51.363Z,11.30
2022-09-28T21:32:20.538Z,11.41
2022-09-28T21:34:50.524Z,11.45
2022-09-28T21:37:19.814Z,11.37
2022-09-28T21:39:50.147Z,11.27
2022-09-28T21:42:19.229Z,11.20
2022-09-28T21:44:48.324Z,11.29
2022-09-28T21:47:17.360Z,11.29
2022-09-28T21:49:46.233Z,11.28
2022-09-28T21:52:15.350Z,11.32
2022-09-28T21:54:44.329Z,11.24
2022-09-28T21:57:14.711Z,11.17
2022-09-28T21:59:43.829Z,10.99
2022-09-28T22:02:13.651Z,11.05
2022-09-28T22:04:42.653Z,11.07
2022-09-28T22:07:12.223Z,11.07
2022-09-28T22:09:41.258Z,11.24
2022-09-28T22:12:10.751Z,11.31
2022-09-28T22:14:41.472Z,11.32
2022-09-28T22:17:10.688Z,11.35
2022-09-28T22:19:40.461Z,11.42
2022-09-28T22:22:09.942Z,11.31
2022-09-28T22:24:39.023Z,11.31
2022-09-28T22:27:08.256Z,11.32
2022-09-28T22:29:37.505Z,11.37
2022-09-28T22:32:08.080Z,11.36
2022-09-28T22:34:37.535Z,11.45
2022-09-28T22:37:06.814Z,11.34
2022-09-28T22:39:37.864Z,11.39
2022-09-28T22:42:07.458Z,11.43
2022-09-28T22:44:37.822Z,11.40
2022-09-28T22:47:08.612Z,11.49
2022-09-28T22:49:37.845Z,11.56
2022-09-28T22:52:06.817Z,11.43
2022-09-28T22:54:35.903Z,11.47
2022-09-28T22:57:05.294Z,11.51
2022-09-28T22:59:34.415Z,11.53
2022-09-28T23:02:03.715Z,11.55
2022-09-28T23:04:34.525Z,11.58
2022-09-28T23:07:03.754Z,11.60
2022-09-28T23:09:33.264Z,11.56
2022-09-28T23:12:02.630Z,11.56
2022-09-28T23:14:31.585Z,11.52
2022-09-28T23:17:01.131Z,11.42
2022-09-28T23:19:30.241Z,11.49
2022-09-28T23:22:00.678Z,11.24
2022-09-28T23:24:30.000Z,11.39
2022-09-28T23:26:59.154Z,11.42
2022-09-28T23:29:28.305Z,11.23
2022-09-28T23:31:57.496Z,11.22
2022-09-28T23:34:26.488Z,11.31
2022-09-28T23:36:56.856Z,11.19
2022-09-28T23:39:27.448Z,11.44
2022-09-28T23:41:57.866Z,11.34
2022-09-28T23:44:28.153Z,11.25
2022-09-28T23:46:57.709Z,11.30
2022-09-28T23:49:26.787Z,11.33
2022-09-28T23:51:56.143Z,11.28
2022-09-28T23:54:26.496Z,11.21
2022-09-28T23:56:55.662Z,11.19
2022-09-28T23:59:24.948Z,11.24
